Time;durP1;ratioP1;P1;durP2;ratioP2;P2;SDS_P1;SDS_P2;PMS_P1;PMS_P2;Temp;Humidity;BMP_temperature;BMP_pressure;BME280_temperature;BME280_humidity;BME280_pressure;Samples;Min_cycle;Max_cycle;Signal;HPM_P1;HPM_P2
2023/10/19 00:01:09;;;;;;;6.75;5.68;;;12.50;99.90;;;;;;5026616;28;20460;-89
2023/10/19 00:03:35;;;;;;;6.80;6.03;;;12.50;99.90;;;;;;5036475;28;20072;-90
2023/10/19 00:06:01;;;;;;;6.05;5.20;;;12.50;99.90;;;;;;5036930;28;20056;-89
2023/10/19 00:08:36;;;;;;;6.85;5.25;;;12.50;99.90;;;;;;5030379;28;20107;-90
2023/10/19 00:11:08;;;;;;;6.78;6.07;;;12.60;99.90;;;;;;5028715;28;20471;-89
2023/10/19 00:13:40;;;;;;;5.88;5.28;;;12.60;99.90;;;;;;5035639;28;20017;-90
2023/10/19 00:16:17;;;;;;;6.88;5.10;;;12.60;99.90;;;;;;5003864;28;20175;-92
2023/10/19 00:18:48;;;;;;;6.18;5.38;;;12.70;99.90;;;;;;5036865;28;20036;-91
2023/10/19 00:21:20;;;;;;;5.85;5.00;;;12.70;99.90;;;;;;5045315;28;20024;-90
2023/10/19 00:23:50;;;;;;;5.63;5.05;;;12.70;99.90;;;;;;5056769;28;20035;-90
2023/10/19 00:26:19;;;;;;;5.97;5.35;;;12.80;99.90;;;;;;5056742;28;20036;-90
2023/10/19 00:28:46;;;;;;;9.27;6.20;;;12.70;99.90;;;;;;5052308;28;20032;-91
2023/10/19 00:31:15;;;;;;;7.40;5.80;;;12.80;99.90;;;;;;5035777;28;20029;-91
2023/10/19 00:33:40;;;;;;;7.25;6.07;;;12.80;99.90;;;;;;5020199;28;20021;-90
2023/10/19 00:36:07;;;;;;;6.82;6.13;;;12.80;99.90;;;;;;5030918;28;20025;-89
2023/10/19 00:41:13;;;;;;;6.90;6.20;;;12.80;99.90;;;;;;5028109;28;20478;-91
2023/10/19 00:43:51;;;;;;;8.10;6.57;;;12.80;99.90;;;;;;5033536;28;20032;-91
2023/10/19 00:49:01;;;;;;;7.40;6.05;;;12.80;99.90;;;;;;5054050;28;20453;-90
2023/10/19 00:54:10;;;;;;;7.80;6.47;;;12.90;99.90;;;;;;5061007;28;20030;-92
2023/10/19 00:56:37;;;;;;;7.88;6.50;;;12.90;99.90;;;;;;5037114;28;20025;-90
2023/10/19 00:59:14;;;;;;;7.07;5.65;;;12.90;99.90;;;;;;5055314;28;20041;-89
2023/10/19 01:01:47;;;;;;;6.82;6.13;;;12.90;99.90;;;;;;5038290;28;20431;-89
2023/10/19 01:04:22;;;;;;;7.45;6.38;;;13.00;99.90;;;;;;5044464;28;20021;-89
2023/10/19 01:09:44;;;;;;;7.65;6.45;;;13.00;99.90;;;;;;5053036;28;20028;-90
2023/10/19 01:12:25;;;;;;;6.63;5.57;;;13.00;99.90;;;;;;5055229;28;20060;-90
2023/10/19 01:17:58;;;;;;;8.70;6.72;;;13.00;99.90;;;;;;5054075;28;20037;-91
2023/10/19 01:26:07;;;;;;;9.35;7.22;;;13.10;99.90;;;;;;5053097;28;20033;-91
2023/10/19 01:28:47;;;;;;;7.90;6.88;;;13.10;99.90;;;;;;5057564;28;20068;-90
2023/10/19 01:31:31;;;;;;;7.57;6.65;;;13.10;99.90;;;;;;5039706;28;20447;-91
2023/10/19 01:34:03;;;;;;;7.28;6.50;;;13.10;99.90;;;;;;5039094;28;20032;-92
2023/10/19 01:36:32;;;;;;;8.23;7.30;;;13.20;99.90;;;;;;5039191;28;20372;-91
2023/10/19 01:39:00;;;;;;;8.57;7.30;;;13.20;99.90;;;;;;5015970;28;20487;-89
2023/10/19 01:41:36;;;;;;;7.93;6.95;;;13.20;99.90;;;;;;5012874;28;20040;-90
2023/10/19 01:44:13;;;;;;;8.50;7.43;;;13.20;99.90;;;;;;5038845;28;20025;-90
2023/10/19 01:46:39;;;;;;;8.75;6.47;;;13.20;99.90;;;;;;5056680;28;20473;-92
2023/10/19 01:49:08;;;;;;;9.70;6.95;;;13.30;99.90;;;;;;5039350;28;20021;-90
2023/10/19 01:51:44;;;;;;;8.48;6.60;;;13.30;99.90;;;;;;5022078;28;20464;-90
2023/10/19 01:54:11;;;;;;;7.53;6.40;;;13.30;99.90;;;;;;5050415;28;20017;-90
2023/10/19 01:56:38;;;;;;;8.13;6.60;;;13.30;99.90;;;;;;5023056;28;20071;-91
2023/10/19 01:59:05;;;;;;;8.57;6.80;;;13.40;99.90;;;;;;5038954;28;20055;-91
2023/10/19 02:01:32;;;;;;;8.27;6.55;;;13.40;99.90;;;;;;5038923;28;20025;-90
2023/10/19 02:04:08;;;;;;;7.28;6.47;;;13.40;99.90;;;;;;5038778;28;20024;-90
2023/10/19 02:06:39;;;;;;;7.82;6.57;;;13.40;99.90;;;;;;5038921;28;20100;-90
2023/10/19 02:09:22;;;;;;;7.50;6.50;;;13.40;99.90;;;;;;5038884;28;20029;-91
2023/10/19 02:11:55;;;;;;;9.68;6.93;;;13.40;99.90;;;;;;5038385;28;20025;-91
2023/10/19 02:14:21;;;;;;;8.02;6.25;;;13.50;99.90;;;;;;5005720;28;20026;-91
2023/10/19 02:16:52;;;;;;;6.70;6.00;;;13.50;99.90;;;;;;5018820;28;20086;-90
2023/10/19 02:19:20;;;;;;;9.48;6.85;;;13.50;99.90;;;;;;5009552;28;20362;-90
2023/10/19 02:21:50;;;;;;;7.45;6.20;;;13.50;99.90;;;;;;5022132;28;20028;-90
2023/10/19 02:24:18;;;;;;;8.07;6.28;;;13.50;99.90;;;;;;5018428;28;20083;-90
2023/10/19 02:26:46;;;;;;;6.93;6.22;;;13.60;99.90;;;;;;5036317;28;20029;-90
2023/10/19 02:29:13;;;;;;;8.18;6.28;;;13.60;99.90;;;;;;5021465;28;20484;-91
2023/10/19 02:31:42;;;;;;;6.45;5.82;;;13.60;99.90;;;;;;5036338;28;20052;-90
2023/10/19 02:34:12;;;;;;;6.55;5.85;;;13.60;99.90;;;;;;5038588;28;20104;-90
2023/10/19 02:36:41;;;;;;;6.32;5.45;;;13.60;99.90;;;;;;5020934;28;20029;-92
2023/10/19 02:39:13;;;;;;;6.43;5.75;;;13.60;99.90;;;;;;5043729;28;20032;-93
2023/10/19 02:41:44;;;;;;;6.68;5.97;;;13.70;99.90;;;;;;5054659;28;20028;-91
2023/10/19 02:46:50;;;;;;;7.13;5.85;;;13.70;99.90;;;;;;5064571;28;20021;-89
2023/10/19 02:49:22;;;;;;;6.43;5.60;;;13.70;99.90;;;;;;5073779;28;20024;-91
2023/10/19 02:51:49;;;;;;;7.85;6.00;;;13.70;99.90;;;;;;5046628;28;20059;-90
2023/10/19 02:54:19;;;;;;;9.43;6.03;;;13.80;99.90;;;;;;5052661;28;20085;-91
2023/10/19 02:56:49;;;;;;;7.77;5.97;;;13.80;99.90;;;;;;5018989;28;20041;-91
2023/10/19 02:59:16;;;;;;;6.63;5.68;;;13.80;99.90;;;;;;5031370;28;20703;-89
2023/10/19 03:01:46;;;;;;;6.40;5.22;;;13.80;99.90;;;;;;5056000;28;20037;-91
2023/10/19 03:04:17;;;;;;;5.90;5.30;;;13.80;99.90;;;;;;5055604;28;20443;-91
2023/10/19 03:06:43;;;;;;;;;;;13.90;99.90;;;;;;5039821;28;20025;-89
2023/10/19 03:11:55;;;;;;;5.13;4.47;;;13.90;99.90;;;;;;5060632;28;20084;-90
2023/10/19 03:14:24;;;;;;;5.18;3.97;;;13.90;99.90;;;;;;5037517;28;20079;-90
2023/10/19 03:16:51;;;;;;;4.40;3.83;;;14.00;99.90;;;;;;5037570;28;20029;-90
2023/10/19 03:19:18;;;;;;;4.35;3.67;;;14.00;99.90;;;;;;5031084;28;20033;-90
2023/10/19 03:21:48;;;;;;;4.75;3.50;;;14.00;99.90;;;;;;5037403;28;20075;-90
2023/10/19 03:27:00;;;;;;;4.63;3.10;;;14.10;99.90;;;;;;5054553;28;20554;-90
2023/10/19 03:29:31;;;;;;;4.57;3.15;;;14.20;99.90;;;;;;5050435;28;20022;-91
2023/10/19 03:32:04;;;;;;;3.97;2.85;;;14.20;99.90;;;;;;5025498;28;20109;-89
2023/10/19 03:34:32;;;;;;;3.42;2.70;;;14.20;99.90;;;;;;5052626;28;20064;-91
2023/10/19 03:37:04;;;;;;;3.97;2.50;;;14.30;99.90;;;;;;5044507;28;20380;-90
2023/10/19 03:39:30;;;;;;;3.25;2.33;;;14.30;99.90;;;;;;5055005;28;20086;-91
2023/10/19 03:41:58;;;;;;;4.22;2.20;;;14.30;99.90;;;;;;5034921;28;20385;-92
2023/10/19 03:44:26;;;;;;;2.75;2.08;;;14.40;99.90;;;;;;5015033;28;20055;-91
2023/10/19 03:47:01;;;;;;;2.53;2.05;;;14.40;99.90;;;;;;5017728;28;20043;-92
2023/10/19 03:49:38;;;;;;;2.15;1.75;;;14.40;99.90;;;;;;5025483;28;20171;-90
2023/10/19 03:54:39;;;;;;;2.03;1.70;;;14.50;99.90;;;;;;5054470;28;20067;-90
2023/10/19 03:57:11;;;;;;;3.28;1.95;;;14.50;99.90;;;;;;5035884;28;20025;-91
2023/10/19 03:59:37;;;;;;;4.10;2.45;;;14.50;99.90;;;;;;5054864;28;20013;-90
2023/10/19 04:02:12;;;;;;;2.78;2.08;;;14.50;99.90;;;;;;5056367;28;20033;-91
2023/10/19 04:04:39;;;;;;;2.85;2.10;;;14.50;99.90;;;;;;5039035;28;20163;-90
2023/10/19 04:07:14;;;;;;;4.72;2.78;;;14.60;99.90;;;;;;5018620;28;20025;-90
2023/10/19 04:10:08;;;;;;;4.22;2.83;;;14.60;99.90;;;;;;5021031;28;20028;-90
2023/10/19 04:12:42;;;;;;;5.75;3.28;;;14.60;99.90;;;;;;5034435;28;20033;-90
2023/10/19 04:15:17;;;;;;;2.92;2.60;;;14.60;99.90;;;;;;5036569;28;20031;-90
2023/10/19 04:17:45;;;;;;;3.50;2.83;;;14.60;99.90;;;;;;5037568;28;20037;-90
2023/10/19 04:22:47;;;;;;;5.45;3.13;;;14.60;99.90;;;;;;5054844;28;20025;-90
2023/10/19 04:25:15;;;;;;;5.15;2.85;;;14.50;99.90;;;;;;5022280;28;20036;-90
2023/10/19 04:27:43;;;;;;;3.97;2.95;;;14.60;99.90;;;;;;5059795;28;20119;-90
2023/10/19 04:30:15;;;;;;;3.25;2.90;;;14.60;99.90;;;;;;5043911;28;20013;-89
2023/10/19 04:32:46;;;;;;;4.00;2.92;;;14.60;99.90;;;;;;5059495;28;20081;-89
2023/10/19 04:35:21;;;;;;;5.32;3.20;;;14.60;99.90;;;;;;5038075;28;20035;-91
2023/10/19 04:37:48;;;;;;;3.80;2.80;;;14.60;99.90;;;;;;5040530;28;20078;-90
2023/10/19 04:40:16;;;;;;;3.60;2.97;;;14.60;99.90;;;;;;5007108;28;20033;-88
2023/10/19 04:42:42;;;;;;;3.88;2.90;;;14.60;99.90;;;;;;5040944;28;20074;-89
2023/10/19 04:45:08;;;;;;;4.40;3.42;;;14.60;99.90;;;;;;5037660;28;20017;-89
2023/10/19 04:47:37;;;;;;;4.15;3.05;;;14.60;99.90;;;;;;5032513;28;20032;-89
2023/10/19 04:50:04;;;;;;;4.75;3.40;;;14.60;99.90;;;;;;5035036;28;20069;-88
2023/10/19 04:52:30;;;;;;;5.13;4.00;;;14.60;99.90;;;;;;5042141;28;20373;-89
2023/10/19 04:54:57;;;;;;;4.22;3.45;;;14.60;99.90;;;;;;5061772;28;20021;-90
2023/10/19 04:57:23;;;;;;;5.40;3.70;;;14.60;99.90;;;;;;5039772;28;20114;-90
2023/10/19 04:59:49;;;;;;;5.40;3.90;;;14.60;99.90;;;;;;5026546;28;20037;-90
2023/10/19 05:02:15;;;;;;;4.25;3.55;;;14.60;99.90;;;;;;5039990;28;20457;-91
2023/10/19 05:04:41;;;;;;;6.03;3.78;;;14.60;99.90;;;;;;5041456;28;20027;-90
2023/10/19 05:07:12;;;;;;;4.82;3.67;;;14.60;99.90;;;;;;5043802;28;20481;-90
2023/10/19 05:09:39;;;;;;;3.70;3.38;;;14.60;99.90;;;;;;5042254;28;20469;-90
2023/10/19 05:12:09;;;;;;;4.55;3.80;;;14.60;99.90;;;;;;5022031;28;20112;-90
2023/10/19 05:14:35;;;;;;;4.15;3.75;;;14.50;99.90;;;;;;5038653;28;20434;-89
2023/10/19 05:17:05;;;;;;;4.95;3.55;;;14.50;99.90;;;;;;5045099;28;20086;-89
2023/10/19 05:19:34;;;;;;;4.10;3.28;;;14.50;99.90;;;;;;5040472;28;20033;-90
2023/10/19 05:22:01;;;;;;;3.83;3.38;;;14.50;99.90;;;;;;5042009;28;20068;-89
2023/10/19 05:24:27;;;;;;;5.35;3.58;;;14.40;99.90;;;;;;5031855;28;20029;-89
2023/10/19 05:26:54;;;;;;;3.60;3.30;;;14.40;99.90;;;;;;5044106;28;20028;-89
2023/10/19 05:29:22;;;;;;;4.40;3.60;;;14.40;99.90;;;;;;5043747;28;20461;-89
2023/10/19 05:31:53;;;;;;;4.00;3.03;;;14.40;99.90;;;;;;5011511;28;20076;-89
2023/10/19 05:34:22;;;;;;;3.30;3.00;;;14.40;99.90;;;;;;5006364;28;20037;-89
2023/10/19 05:36:51;;;;;;;3.55;2.92;;;14.30;99.90;;;;;;5041533;28;20036;-90
2023/10/19 05:39:17;;;;;;;3.38;2.80;;;14.30;99.90;;;;;;5038828;28;20075;-90
2023/10/19 05:41:44;;;;;;;3.03;2.60;;;14.30;99.90;;;;;;5039778;28;20025;-90
2023/10/19 05:44:12;;;;;;;4.47;2.78;;;14.30;99.90;;;;;;5038872;28;20045;-89
2023/10/19 05:46:40;;;;;;;2.78;2.53;;;14.30;99.90;;;;;;5040254;28;20032;-89
2023/10/19 05:49:06;;;;;;;5.22;2.90;;;14.30;99.90;;;;;;5055347;28;20035;-90
2023/10/19 05:51:32;;;;;;;3.25;2.60;;;14.30;99.90;;;;;;5079455;28;20052;-91
2023/10/19 05:54:04;;;;;;;3.80;2.50;;;14.40;99.90;;;;;;5054619;28;20021;-90
2023/10/19 05:56:36;;;;;;;3.88;2.70;;;14.40;99.90;;;;;;5038758;28;20358;-89
2023/10/19 05:59:02;;;;;;;2.70;2.50;;;14.40;99.90;;;;;;5038599;28;20041;-90
2023/10/19 06:01:28;;;;;;;4.15;2.75;;;14.40;99.90;;;;;;5022396;28;20114;-89
2023/10/19 06:03:54;;;;;;;3.95;2.83;;;14.40;99.90;;;;;;5038999;28;20071;-90
2023/10/19 06:06:20;;;;;;;3.80;2.53;;;14.40;99.90;;;;;;5038736;28;20029;-89
2023/10/19 06:08:46;;;;;;;4.10;2.45;;;14.40;99.90;;;;;;5028693;28;20074;-90
2023/10/19 06:11:11;;;;;;;3.95;2.53;;;14.40;99.90;;;;;;5055490;28;20044;-90
2023/10/19 06:13:37;;;;;;;6.05;2.42;;;14.50;99.90;;;;;;5021839;28;20040;-89
2023/10/19 06:16:03;;;;;;;2.55;1.88;;;14.50;99.90;;;;;;5022234;28;20025;-89
2023/10/19 06:18:31;;;;;;;3.03;2.08;;;14.50;99.90;;;;;;5038261;28;20028;-90
2023/10/19 06:20:57;;;;;;;4.05;1.70;;;14.50;99.90;;;;;;5042540;28;20021;-89
2023/10/19 06:23:23;;;;;;;2.45;1.60;;;14.50;99.90;;;;;;5030146;28;20074;-90
2023/10/19 06:25:51;;;;;;;2.17;1.55;;;14.50;99.90;;;;;;5058348;28;20036;-91
2023/10/19 06:28:19;;;;;;;2.33;1.35;;;14.50;99.90;;;;;;5053927;28;20025;-91
2023/10/19 06:30:48;;;;;;;2.75;1.58;;;14.60;99.90;;;;;;5039052;28;20024;-90
2023/10/19 06:33:22;;;;;;;2.90;1.50;;;14.60;99.90;;;;;;5038683;28;20473;-90
2023/10/19 06:35:48;;;;;;;4.57;1.77;;;14.60;99.90;;;;;;5038729;28;20017;-90
2023/10/19 06:38:14;;;;;;;3.53;1.85;;;14.70;99.90;;;;;;5036393;28;20484;-90
2023/10/19 06:40:40;;;;;;;2.10;1.23;;;14.70;99.90;;;;;;5034864;28;20461;-89
2023/10/19 06:43:06;;;;;;;3.05;1.58;;;14.70;99.90;;;;;;5058631;28;20025;-89
2023/10/19 06:45:32;;;;;;;2.85;1.40;;;14.70;99.90;;;;;;5059866;28;20029;-90
2023/10/19 06:48:00;;;;;;;1.92;1.10;;;14.70;99.90;;;;;;5066514;28;20017;-89
2023/10/19 06:50:29;;;;;;;3.88;1.50;;;14.70;99.90;;;;;;5099608;28;20007;-90
2023/10/19 06:52:56;;;;;;;3.00;1.20;;;14.80;99.90;;;;;;5054326;28;20075;-89
2023/10/19 06:55:22;;;;;;;3.22;1.27;;;14.80;99.90;;;;;;5034485;28;20040;-90
2023/10/19 06:57:53;;;;;;;2.63;1.00;;;14.80;99.90;;;;;;5018839;28;20050;-91
2023/10/19 07:00:22;;;;;;;3.42;1.33;;;14.80;99.90;;;;;;4999985;28;20029;-90
2023/10/19 07:02:51;;;;;;;3.70;1.30;;;14.90;99.90;;;;;;5015078;28;20034;-90
2023/10/19 07:05:21;;;;;;;2.67;1.30;;;14.80;99.90;;;;;;5015073;28;20049;-89
2023/10/19 07:07:46;;;;;;;2.78;1.08;;;14.90;99.90;;;;;;5014716;28;20554;-90
2023/10/19 07:10:13;;;;;;;4.10;1.20;;;14.90;99.90;;;;;;5014892;28;20030;-90
2023/10/19 07:12:45;;;;;;;2.35;1.10;;;14.90;99.90;;;;;;4997966;28;20957;-90
2023/10/19 07:15:14;;;;;;;9.68;1.50;;;15.00;99.90;;;;;;4998315;28;20502;-89
2023/10/19 07:17:41;;;;;;;2.53;1.20;;;15.00;99.90;;;;;;5015567;28;20109;-90
2023/10/19 07:20:08;;;;;;;2.80;1.27;;;15.00;99.90;;;;;;5014498;28;20037;-89
2023/10/19 07:22:37;;;;;;;3.30;1.00;;;15.00;99.90;;;;;;5014429;28;20113;-90
2023/10/19 07:25:08;;;;;;;2.10;1.10;;;15.10;99.90;;;;;;4997936;28;20482;-90
2023/10/19 07:27:35;;;;;;;4.88;1.23;;;15.10;99.90;;;;;;5015223;28;20473;-90
2023/10/19 07:30:05;;;;;;;2.20;0.82;;;15.10;99.90;;;;;;5014751;28;20455;-89
2023/10/19 07:32:30;;;;;;;1.30;0.73;;;15.10;99.90;;;;;;5013362;28;20121;-89
2023/10/19 07:34:57;;;;;;;3.00;1.10;;;15.20;99.90;;;;;;4995185;28;20065;-90
2023/10/19 07:37:23;;;;;;;4.43;1.33;;;15.20;99.90;;;;;;5003886;28;20045;-91
2023/10/19 07:39:55;;;;;;;4.47;1.20;;;15.20;99.90;;;;;;4994771;28;20026;-90
2023/10/19 07:42:21;;;;;;;3.47;1.33;;;15.20;99.90;;;;;;5001276;28;20050;-89
2023/10/19 07:44:47;;;;;;;1.98;0.77;;;15.20;99.90;;;;;;5030556;28;20064;-89
2023/10/19 07:47:13;;;;;;;3.88;1.38;;;15.30;99.90;;;;;;4997912;28;20389;-91
2023/10/19 07:49:39;;;;;;;3.70;0.85;;;15.30;99.90;;;;;;5005254;28;20029;-91
2023/10/19 07:52:07;;;;;;;3.30;1.20;;;15.30;99.90;;;;;;5030813;28;20026;-90
2023/10/19 07:54:37;;;;;;;2.53;1.20;;;15.30;99.90;;;;;;4997109;28;20056;-90
2023/10/19 07:57:06;;;;;;;1.70;0.98;;;15.30;99.90;;;;;;5013904;28;20041;-90
2023/10/19 07:59:36;;;;;;;1.85;0.88;;;15.30;99.90;;;;;;5031798;28;20459;-90
2023/10/19 08:02:02;;;;;;;3.28;1.27;;;15.30;99.90;;;;;;5017186;28;20036;-90
2023/10/19 08:04:31;;;;;;;3.92;1.30;;;15.40;99.90;;;;;;5033923;28;20025;-89
2023/10/19 08:06:59;;;;;;;2.00;1.15;;;15.40;99.90;;;;;;5021461;28;20394;-89
2023/10/19 08:09:31;;;;;;;3.03;1.35;;;15.40;99.90;;;;;;5046079;28;20082;-89
2023/10/19 08:11:59;;;;;;;3.90;1.00;;;15.40;99.90;;;;;;5033903;28;20424;-90
2023/10/19 08:14:26;;;;;;;3.85;1.30;;;15.50;99.90;;;;;;5034596;28;20022;-90
2023/10/19 08:16:52;;;;;;;4.47;1.60;;;15.50;99.90;;;;;;5033743;28;20135;-89
2023/10/19 08:19:18;;;;;;;4.25;1.13;;;15.50;99.90;;;;;;5035423;28;20018;-90
2023/10/19 08:21:45;;;;;;;3.10;1.13;;;15.50;99.90;;;;;;5038049;28;20124;-90
2023/10/19 08:24:13;;;;;;;2.25;1.00;;;15.50;99.90;;;;;;5027942;28;20038;-90
2023/10/19 08:26:42;;;;;;;3.78;1.40;;;15.60;99.90;;;;;;5018528;28;20022;-89
2023/10/19 08:29:14;;;;;;;2.53;1.20;;;15.60;99.90;;;;;;5042059;28;20010;-89
2023/10/19 08:31:46;;;;;;;3.58;1.20;;;15.60;99.90;;;;;;5057124;28;20397;-89
2023/10/19 08:34:13;;;;;;;6.28;1.60;;;15.60;99.90;;;;;;5058166;28;20049;-88
2023/10/19 08:36:39;;;;;;;2.53;1.40;;;15.60;99.90;;;;;;5059897;28;20013;-89
2023/10/19 08:39:09;;;;;;;4.80;2.20;;;15.60;99.90;;;;;;5039320;28;20380;-90
2023/10/19 08:41:39;;;;;;;2.90;1.50;;;15.60;99.90;;;;;;5019473;28;20022;-90
2023/10/19 08:44:17;;;;;;;5.63;1.80;;;15.70;99.90;;;;;;5020089;28;20068;-89
2023/10/19 08:46:45;;;;;;;2.50;1.38;;;15.60;99.90;;;;;;5052942;28;20040;-90
2023/10/19 08:49:12;;;;;;;3.50;1.50;;;15.70;99.90;;;;;;5056231;28;20074;-90
2023/10/19 08:51:39;;;;;;;5.43;1.58;;;15.70;99.90;;;;;;5029324;28;20025;-91
2023/10/19 08:54:06;;;;;;;4.20;1.33;;;15.70;99.90;;;;;;5037084;28;20033;-90
2023/10/19 08:56:33;;;;;;;4.03;1.40;;;15.80;99.90;;;;;;5020840;28;20040;-89
2023/10/19 08:59:00;;;;;;;3.10;1.60;;;15.80;99.90;;;;;;5036641;28;20045;-90
2023/10/19 09:01:28;;;;;;;7.90;1.70;;;15.80;99.90;;;;;;5037208;28;20030;-90
2023/10/19 09:04:00;;;;;;;3.03;1.35;;;15.80;99.90;;;;;;5038205;28;20702;-90
2023/10/19 09:06:28;;;;;;;5.60;1.65;;;15.90;99.90;;;;;;5038524;28;20029;-90
2023/10/19 09:08:55;;;;;;;3.55;1.52;;;15.90;99.90;;;;;;5020315;28;20419;-90
2023/10/19 09:11:21;;;;;;;4.18;1.27;;;15.90;99.90;;;;;;5037699;28;20420;-90
2023/10/19 09:13:49;;;;;;;5.03;1.45;;;15.90;99.90;;;;;;5037571;28;20096;-91
2023/10/19 09:16:22;;;;;;;4.13;1.15;;;16.00;99.90;;;;;;5036683;28;20029;-91
2023/10/19 09:18:51;;;;;;;3.28;1.52;;;16.00;99.90;;;;;;5042846;28;20032;-91
2023/10/19 09:21:24;;;;;;;6.10;1.60;;;16.00;99.90;;;;;;5019794;28;20064;-92
2023/10/19 09:23:51;;;;;;;5.07;1.48;;;16.10;99.90;;;;;;5016630;28;20036;-90
2023/10/19 09:26:18;;;;;;;3.95;1.60;;;16.10;99.90;;;;;;5017762;28;20029;-89
2023/10/19 09:28:47;;;;;;;4.10;1.80;;;16.10;99.90;;;;;;5035110;28;20025;-90
2023/10/19 09:31:13;;;;;;;3.67;1.50;;;16.20;99.90;;;;;;5036533;28;20060;-90
2023/10/19 09:33:47;;;;;;;5.10;1.52;;;16.20;99.90;;;;;;5035798;28;20455;-90
2023/10/19 09:36:14;;;;;;;5.35;1.70;;;16.20;99.90;;;;;;5053060;28;20040;-89
2023/10/19 09:38:52;;;;;;;5.05;1.90;;;16.20;99.90;;;;;;5039372;28;20037;-91
2023/10/19 09:41:21;;;;;;;3.42;1.90;;;16.30;99.90;;;;;;5044725;28;20017;-90
2023/10/19 09:43:48;;;;;;;3.30;2.17;;;16.30;99.90;;;;;;5035865;28;20109;-91
2023/10/19 09:46:31;;;;;;;6.97;1.92;;;16.40;99.90;;;;;;5019416;28;20040;-91
2023/10/19 09:48:57;;;;;;;3.90;1.95;;;16.40;99.90;;;;;;5035994;28;20025;-90
2023/10/19 09:51:24;;;;;;;3.75;1.92;;;16.40;99.90;;;;;;5019678;28;20036;-91
2023/10/19 09:54:15;;;;;;;3.55;2.10;;;16.50;99.90;;;;;;4986980;28;20088;-90
2023/10/19 09:56:46;;;;;;;4.85;1.73;;;16.50;99.90;;;;;;5036248;28;20025;-89
2023/10/19 09:59:21;;;;;;;6.00;2.20;;;16.50;99.90;;;;;;5036021;28;20532;-91
2023/10/19 10:02:08;;;;;;;6.47;2.28;;;16.60;99.90;;;;;;5037070;28;20381;-90
2023/10/19 10:04:37;;;;;;;4.63;1.98;;;16.60;99.90;;;;;;5036140;28;20030;-91
2023/10/19 10:07:06;;;;;;;4.53;2.22;;;16.70;99.90;;;;;;5019871;28;20037;-89
2023/10/19 10:09:43;;;;;;;2.83;1.55;;;16.70;99.90;;;;;;5048760;28;20052;-91
2023/10/19 10:12:26;;;;;;;9.95;2.97;;;16.80;99.90;;;;;;5051389;28;20021;-91
2023/10/19 10:15:09;;;;;;;4.80;2.03;;;16.90;99.90;;;;;;5039905;28;20033;-90
2023/10/19 10:17:37;;;;;;;4.40;2.00;;;16.90;99.90;;;;;;5039930;28;20030;-90
2023/10/19 10:20:13;;;;;;;4.63;2.08;;;16.90;99.90;;;;;;5050813;28;20049;-90
2023/10/19 10:22:39;;;;;;;3.60;1.85;;;17.00;99.90;;;;;;5054991;28;20065;-90
2023/10/19 10:25:07;;;;;;;4.45;2.05;;;17.10;99.90;;;;;;5020492;28;20057;-91
2023/10/19 10:27:36;;;;;;;4.50;1.73;;;17.10;99.90;;;;;;5018806;28;20116;-91
2023/10/19 10:30:07;;;;;;;4.13;2.15;;;17.20;99.90;;;;;;5018215;28;20033;-90
2023/10/19 10:32:54;;;;;;;5.45;1.90;;;17.20;99.90;;;;;;5016567;28;20023;-90
2023/10/19 10:35:41;;;;;;;4.03;1.70;;;17.20;99.90;;;;;;5020112;28;20115;-90
2023/10/19 10:38:14;;;;;;;3.30;1.52;;;17.30;99.90;;;;;;5034973;28;20069;-90
2023/10/19 10:40:47;;;;;;;6.07;2.15;;;17.30;99.90;;;;;;5021334;28;20033;-90
2023/10/19 10:43:13;;;;;;;5.78;1.58;;;17.40;99.90;;;;;;5037058;28;20060;-90
2023/10/19 10:45:39;;;;;;;5.93;2.15;;;17.40;99.90;;;;;;5014718;28;20045;-92
2023/10/19 10:48:16;;;;;;;3.85;2.00;;;17.40;99.90;;;;;;5034241;28;20033;-91
2023/10/19 10:50:42;;;;;;;5.63;1.88;;;17.50;99.90;;;;;;5035237;28;20029;-90
2023/10/19 10:53:11;;;;;;;6.05;1.90;;;17.50;99.90;;;;;;5048570;28;20021;-91
2023/10/19 10:55:39;;;;;;;5.90;2.17;;;17.50;99.90;;;;;;5034884;28;20029;-90
2023/10/19 10:58:04;;;;;;;5.13;2.00;;;17.50;99.90;;;;;;5031877;28;20064;-91
2023/10/19 11:00:33;;;;;;;6.90;2.33;;;17.50;99.90;;;;;;5014987;28;20026;-92
2023/10/19 11:03:07;;;;;;;3.92;2.00;;;17.50;99.90;;;;;;5014626;28;20022;-91
2023/10/19 11:05:35;;;;;;;5.85;2.10;;;17.60;99.90;;;;;;5015015;28;20029;-89
2023/10/19 11:08:14;;;;;;;5.63;2.15;;;17.60;99.90;;;;;;5012103;28;20041;-91
2023/10/19 11:10:44;;;;;;;7.55;2.58;;;17.60;99.90;;;;;;4995575;28;20124;-91
2023/10/19 11:13:11;;;;;;;6.50;2.00;;;17.60;99.90;;;;;;5001756;28;20018;-91
2023/10/19 11:15:38;;;;;;;4.30;1.70;;;17.70;99.90;;;;;;5034250;28;20025;-90
2023/10/19 11:18:07;;;;;;;4.45;1.80;;;17.70;99.90;;;;;;5027536;28;20064;-92
2023/10/19 11:20:33;;;;;;;4.10;1.58;;;17.70;99.90;;;;;;5014531;28;20032;-91
2023/10/19 11:23:02;;;;;;;6.25;2.03;;;17.80;99.90;;;;;;4998082;28;20030;-90
2023/10/19 11:25:31;;;;;;;8.23;2.30;;;17.80;99.90;;;;;;5010811;28;20030;-92
2023/10/19 11:28:01;;;;;;;4.35;1.80;;;17.90;99.90;;;;;;5011633;28;20175;-91
2023/10/19 11:30:29;;;;;;;4.72;1.60;;;18.00;99.90;;;;;;5016794;28;20108;-90
2023/10/19 11:32:59;;;;;;;6.93;2.13;;;18.00;99.90;;;;;;5001442;28;20036;-90
2023/10/19 11:35:30;;;;;;;6.50;1.83;;;18.00;99.90;;;;;;5034328;28;20029;-90
2023/10/19 11:37:58;;;;;;;;;;;18.10;99.90;;;;;;5034388;28;20065;-91
2023/10/19 11:40:25;;;;;;;4.30;1.58;;;18.10;99.90;;;;;;5007505;28;19909;-91
2023/10/19 11:42:52;;;;;;;3.08;1.70;;;18.10;99.90;;;;;;4994954;28;20034;-92
2023/10/19 11:45:18;;;;;;;6.43;1.90;;;18.10;99.90;;;;;;5019033;28;20479;-91
2023/10/19 11:47:47;;;;;;;7.80;1.90;;;18.20;99.90;;;;;;5014206;28;20375;-92
2023/10/19 11:50:15;;;;;;;4.95;1.60;;;18.20;99.90;;;;;;5016447;28;20038;-90
2023/10/19 11:52:42;;;;;;;4.68;1.90;;;18.20;99.90;;;;;;5025211;28;20054;-90
2023/10/19 11:55:13;;;;;;;5.68;1.42;;;18.30;99.90;;;;;;5010500;28;20036;-91
2023/10/19 11:57:40;;;;;;;4.47;1.77;;;18.30;99.90;;;;;;5022092;28;20052;-91
2023/10/19 12:00:09;;;;;;;4.75;1.80;;;18.30;99.90;;;;;;5068076;28;20092;-91
2023/10/19 12:02:38;;;;;;;4.90;1.90;;;18.30;99.90;;;;;;5060509;28;20081;-91
2023/10/19 12:05:10;;;;;;;6.13;1.83;;;18.40;99.90;;;;;;5025594;28;20030;-91
2023/10/19 12:07:37;;;;;;;4.13;1.40;;;18.40;99.90;;;;;;5044268;28;20025;-90
2023/10/19 12:10:04;;;;;;;5.32;1.50;;;18.50;99.90;;;;;;5073922;28;20056;-91
2023/10/19 12:12:30;;;;;;;3.92;1.42;;;18.40;99.90;;;;;;5038599;28;20052;-90
2023/10/19 12:14:55;;;;;;;3.63;1.63;;;18.50;99.90;;;;;;5021420;28;20041;-90
2023/10/19 12:17:22;;;;;;;7.18;1.92;;;18.40;99.90;;;;;;5021080;28;20381;-91
2023/10/19 12:19:48;;;;;;;3.55;1.73;;;18.50;99.90;;;;;;5020447;28;20060;-92
2023/10/19 12:22:13;;;;;;;3.42;1.75;;;18.50;99.90;;;;;;5021548;28;20103;-90
2023/10/19 12:24:39;;;;;;;4.53;1.83;;;18.50;99.90;;;;;;5000886;28;20021;-90
2023/10/19 12:27:07;;;;;;;4.30;1.92;;;18.50;99.90;;;;;;5023656;28;20489;-91
2023/10/19 12:29:32;;;;;;;6.10;1.95;;;18.40;99.90;;;;;;5020573;28;20033;-91
2023/10/19 12:31:58;;;;;;;4.28;1.80;;;18.50;99.90;;;;;;5036553;28;20017;-91
2023/10/19 12:34:24;;;;;;;4.57;1.85;;;18.50;99.90;;;;;;5054144;28;20463;-91
2023/10/19 12:36:51;;;;;;;4.10;1.40;;;18.40;99.90;;;;;;5022666;28;20086;-91
2023/10/19 12:42:03;;;;;;;5.32;1.55;;;18.40;99.90;;;;;;5056496;28;20171;-90
2023/10/19 12:44:29;;;;;;;4.78;1.73;;;18.40;99.90;;;;;;5040226;28;20123;-90
2023/10/19 12:46:57;;;;;;;6.15;1.70;;;18.40;99.90;;;;;;5022530;28;20504;-91
2023/10/19 12:49:25;;;;;;;5.93;1.95;;;18.40;99.90;;;;;;5016877;28;20106;-90
2023/10/19 12:51:52;;;;;;;4.15;1.60;;;18.40;99.90;;;;;;5035372;28;20086;-90
2023/10/19 12:54:18;;;;;;;9.75;1.80;;;18.40;99.90;;;;;;5066141;28;20069;-90
2023/10/19 12:56:43;;;;;;;5.70;1.60;;;18.30;99.90;;;;;;5039479;28;20100;-91
2023/10/19 12:59:09;;;;;;;6.20;1.88;;;18.30;99.90;;;;;;5039417;28;20136;-90
2023/10/19 13:01:35;;;;;;;6.28;1.95;;;18.30;99.90;;;;;;5023358;28;20112;-90
2023/10/19 13:04:13;;;;;;;5.40;1.73;;;18.20;99.90;;;;;;5019402;28;20025;-90
2023/10/19 13:06:40;;;;;;;5.82;1.33;;;18.20;99.90;;;;;;5036397;28;20029;-90
2023/10/19 13:09:08;;;;;;;7.13;1.70;;;18.30;99.90;;;;;;5036155;28;20188;-91
2023/10/19 13:11:34;;;;;;;3.42;1.50;;;18.20;99.90;;;;;;5036343;28;20033;-90
2023/10/19 13:14:00;;;;;;;6.15;1.90;;;18.30;99.90;;;;;;5058293;28;20091;-91
2023/10/19 13:16:28;;;;;;;8.15;2.05;;;18.20;99.90;;;;;;5053624;28;20033;-91
2023/10/19 13:18:54;;;;;;;4.72;2.00;;;18.20;99.90;;;;;;5036183;28;20100;-90
2023/10/19 13:21:27;;;;;;;5.22;1.73;;;18.20;99.90;;;;;;5035859;28;20029;-90
2023/10/19 13:23:53;;;;;;;4.15;2.10;;;18.20;99.90;;;;;;5039011;28;20031;-90
2023/10/19 13:26:19;;;;;;;6.63;2.22;;;18.20;99.90;;;;;;5039757;28;20025;-90
2023/10/19 13:28:45;;;;;;;5.82;2.10;;;18.20;99.90;;;;;;5057688;28;20214;-90
2023/10/19 13:31:13;;;;;;;5.90;1.90;;;18.20;99.90;;;;;;5065572;28;20020;-90
2023/10/19 13:33:41;;;;;;;3.15;1.75;;;18.10;99.90;;;;;;5077442;28;20024;-90